sensor_id;sensor_type;location;lat;lon;timestamp;temperature;humidity
1526;DHT22;756;49.982;8.240;2022-08-01T00:00:05;25.20;58.70
1526;DHT22;756;49.982;8.240;2022-08-01T00:02:35;25.10;58.80
1526;DHT22;756;49.982;8.240;2022-08-01T00:05:03;25.10;58.80
1526;DHT22;756;49.982;8.240;2022-08-01T00:07:33;25.10;58.90
1526;DHT22;756;49.982;8.240;2022-08-01T00:10:02;25.00;59.10
1526;DHT22;756;49.982;8.240;2022-08-01T00:12:29;25.00;59.10
1526;DHT22;756;49.982;8.240;2022-08-01T00:14:56;25.00;59.40
1526;DHT22;756;49.982;8.240;2022-08-01T00:17:22;25.00;59.50
1526;DHT22;756;49.982;8.240;2022-08-01T00:19:49;25.00;59.60
1526;DHT22;756;49.982;8.240;2022-08-01T00:22:16;24.90;59.60
1526;DHT22;756;49.982;8.240;2022-08-01T00:24:43;24.90;59.80
1526;DHT22;756;49.982;8.240;2022-08-01T00:27:10;24.90;59.90
1526;DHT22;756;49.982;8.240;2022-08-01T00:29:37;24.90;60.00
1526;DHT22;756;49.982;8.240;2022-08-01T00:32:24;24.80;60.10
1526;DHT22;756;49.982;8.240;2022-08-01T00:34:51;24.80;60.20
1526;DHT22;756;49.982;8.240;2022-08-01T00:37:18;24.80;60.10
1526;DHT22;756;49.982;8.240;2022-08-01T00:39:44;24.80;60.30
1526;DHT22;756;49.982;8.240;2022-08-01T00:42:12;24.70;60.50
1526;DHT22;756;49.982;8.240;2022-08-01T00:44:39;24.70;60.60
1526;DHT22;756;49.982;8.240;2022-08-01T00:47:07;24.70;60.60
1526;DHT22;756;49.982;8.240;2022-08-01T00:49:34;24.60;60.70
1526;DHT22;756;49.982;8.240;2022-08-01T00:52:03;24.60;60.90
1526;DHT22;756;49.982;8.240;2022-08-01T00:54:31;24.60;60.80
1526;DHT22;756;49.982;8.240;2022-08-01T00:56:59;24.60;60.80
1526;DHT22;756;49.982;8.240;2022-08-01T00:59:26;24.60;60.90
1526;DHT22;756;49.982;8.240;2022-08-01T01:01:53;24.60;61.00
1526;DHT22;756;49.982;8.240;2022-08-01T01:04:22;24.60;61.00
1526;DHT22;756;49.982;8.240;2022-08-01T01:17:28;24.50;61.50
1526;DHT22;756;49.982;8.240;2022-08-01T01:20:18;24.40;61.60
1526;DHT22;756;49.982;8.240;2022-08-01T01:28:29;24.40;62.00
1526;DHT22;756;49.982;8.240;2022-08-01T01:31:00;24.30;62.10
1526;DHT22;756;49.982;8.240;2022-08-01T01:33:31;24.30;62.30
1526;DHT22;756;49.982;8.240;2022-08-01T01:36:04;24.30;62.30
1526;DHT22;756;49.982;8.240;2022-08-01T01:38:42;24.20;62.40
1526;DHT22;756;49.982;8.240;2022-08-01T01:41:12;24.20;62.60
1526;DHT22;756;49.982;8.240;2022-08-01T01:43:40;24.20;62.70
1526;DHT22;756;49.982;8.240;2022-08-01T01:46:09;24.20;62.70
1526;DHT22;756;49.982;8.240;2022-08-01T01:48:38;24.10;62.90
1526;DHT22;756;49.982;8.240;2022-08-01T01:51:07;24.10;63.00
1526;DHT22;756;49.982;8.240;2022-08-01T01:53:35;24.00;63.00
1526;DHT22;756;49.982;8.240;2022-08-01T01:56:03;24.00;63.00
1526;DHT22;756;49.982;8.240;2022-08-01T01:58:32;24.00;63.10
1526;DHT22;756;49.982;8.240;2022-08-01T02:01:01;23.90;63.10
1526;DHT22;756;49.982;8.240;2022-08-01T02:03:30;23.90;63.20
1526;DHT22;756;49.982;8.240;2022-08-01T02:05:59;23.90;63.30
1526;DHT22;756;49.982;8.240;2022-08-01T02:08:29;23.80;63.40
1526;DHT22;756;49.982;8.240;2022-08-01T02:10:58;23.80;63.60
1526;DHT22;756;49.982;8.240;2022-08-01T02:13:49;23.80;63.70
1526;DHT22;756;49.982;8.240;2022-08-01T02:16:17;23.80;63.80
1526;DHT22;756;49.982;8.240;2022-08-01T02:18:45;23.70;63.90
1526;DHT22;756;49.982;8.240;2022-08-01T02:21:16;23.70;63.90
1526;DHT22;756;49.982;8.240;2022-08-01T02:23:47;23.70;64.10
1526;DHT22;756;49.982;8.240;2022-08-01T02:26:16;23.70;64.20
1526;DHT22;756;49.982;8.240;2022-08-01T02:28:57;23.70;64.20
1526;DHT22;756;49.982;8.240;2022-08-01T02:31:25;23.70;64.20
1526;DHT22;756;49.982;8.240;2022-08-01T02:33:59;23.60;64.20
1526;DHT22;756;49.982;8.240;2022-08-01T02:36:30;23.60;64.40
1526;DHT22;756;49.982;8.240;2022-08-01T02:39:02;23.60;64.30
1526;DHT22;756;49.982;8.240;2022-08-01T02:41:30;23.60;64.20
1526;DHT22;756;49.982;8.240;2022-08-01T02:44:01;23.50;64.50
1526;DHT22;756;49.982;8.240;2022-08-01T02:46:43;23.50;64.60
1526;DHT22;756;49.982;8.240;2022-08-01T02:49:13;23.50;64.70
1526;DHT22;756;49.982;8.240;2022-08-01T02:51:42;23.50;64.70
1526;DHT22;756;49.982;8.240;2022-08-01T02:54:11;23.50;64.70
1526;DHT22;756;49.982;8.240;2022-08-01T02:56:39;23.50;64.70
1526;DHT22;756;49.982;8.240;2022-08-01T02:59:10;23.50;64.80
1526;DHT22;756;49.982;8.240;2022-08-01T03:01:40;23.40;64.90
1526;DHT22;756;49.982;8.240;2022-08-01T03:04:09;23.40;64.90
1526;DHT22;756;49.982;8.240;2022-08-01T03:06:37;23.40;65.00
1526;DHT22;756;49.982;8.240;2022-08-01T03:09:06;23.30;65.10
1526;DHT22;756;49.982;8.240;2022-08-01T03:11:35;23.30;65.30
1526;DHT22;756;49.982;8.240;2022-08-01T03:14:07;23.30;65.20
1526;DHT22;756;49.982;8.240;2022-08-01T03:16:38;23.30;65.30
1526;DHT22;756;49.982;8.240;2022-08-01T03:19:06;23.30;65.30
1526;DHT22;756;49.982;8.240;2022-08-01T03:21:34;23.20;65.40
1526;DHT22;756;49.982;8.240;2022-08-01T03:24:04;23.20;65.50
1526;DHT22;756;49.982;8.240;2022-08-01T03:26:34;23.10;65.60
1526;DHT22;756;49.982;8.240;2022-08-01T03:29:08;23.10;65.70
1526;DHT22;756;49.982;8.240;2022-08-01T03:31:38;23.10;65.80
1526;DHT22;756;49.982;8.240;2022-08-01T03:34:09;23.10;65.80
1526;DHT22;756;49.982;8.240;2022-08-01T03:37:03;23.00;66.00
1526;DHT22;756;49.982;8.240;2022-08-01T03:39:33;23.00;66.10
1526;DHT22;756;49.982;8.240;2022-08-01T03:42:09;23.00;66.20
1526;DHT22;756;49.982;8.240;2022-08-01T03:44:37;23.00;66.20
1526;DHT22;756;49.982;8.240;2022-08-01T03:47:09;23.00;66.20
1526;DHT22;756;49.982;8.240;2022-08-01T03:49:41;23.00;66.30
1526;DHT22;756;49.982;8.240;2022-08-01T03:52:09;22.90;66.50
1526;DHT22;756;49.982;8.240;2022-08-01T03:54:41;23.00;66.30
1526;DHT22;756;49.982;8.240;2022-08-01T03:57:09;22.90;66.20
1526;DHT22;756;49.982;8.240;2022-08-01T03:59:57;22.90;66.30
1526;DHT22;756;49.982;8.240;2022-08-01T04:02:28;22.90;66.60
1526;DHT22;756;49.982;8.240;2022-08-01T04:04:55;22.80;66.80
1526;DHT22;756;49.982;8.240;2022-08-01T04:07:27;22.70;66.90
1526;DHT22;756;49.982;8.240;2022-08-01T04:09:54;22.70;67.00
1526;DHT22;756;49.982;8.240;2022-08-01T04:12:22;22.70;67.20
1526;DHT22;756;49.982;8.240;2022-08-01T04:14:49;22.60;67.20
1526;DHT22;756;49.982;8.240;2022-08-01T04:17:16;22.60;67.40
1526;DHT22;756;49.982;8.240;2022-08-01T04:19:43;22.60;67.50
1526;DHT22;756;49.982;8.240;2022-08-01T04:22:11;22.60;67.50
1526;DHT22;756;49.982;8.240;2022-08-01T04:24:47;22.60;67.60
1526;DHT22;756;49.982;8.240;2022-08-01T04:27:27;22.50;67.70
1526;DHT22;756;49.982;8.240;2022-08-01T04:30:18;22.50;67.90
1526;DHT22;756;49.982;8.240;2022-08-01T04:32:47;22.50;68.00
1526;DHT22;756;49.982;8.240;2022-08-01T04:35:16;22.50;68.00
1526;DHT22;756;49.982;8.240;2022-08-01T04:38:04;22.50;68.10
1526;DHT22;756;49.982;8.240;2022-08-01T04:40:32;22.40;68.30
1526;DHT22;756;49.982;8.240;2022-08-01T04:43:02;22.40;68.30
1526;DHT22;756;49.982;8.240;2022-08-01T04:45:31;22.40;68.40
1526;DHT22;756;49.982;8.240;2022-08-01T04:47:59;22.40;68.70
1526;DHT22;756;49.982;8.240;2022-08-01T04:50:26;22.40;68.60
1526;DHT22;756;49.982;8.240;2022-08-01T04:52:53;22.40;68.60
1526;DHT22;756;49.982;8.240;2022-08-01T04:55:21;22.50;68.50
1526;DHT22;756;49.982;8.240;2022-08-01T04:57:47;22.50;68.70
1526;DHT22;756;49.982;8.240;2022-08-01T05:00:15;22.50;68.70
1526;DHT22;756;49.982;8.240;2022-08-01T05:02:46;22.50;68.70
1526;DHT22;756;49.982;8.240;2022-08-01T05:05:13;22.50;68.80
1526;DHT22;756;49.982;8.240;2022-08-01T05:07:41;22.50;68.80
1526;DHT22;756;49.982;8.240;2022-08-01T05:10:10;22.50;68.90
1526;DHT22;756;49.982;8.240;2022-08-01T05:12:37;22.60;68.70
1526;DHT22;756;49.982;8.240;2022-08-01T05:15:05;22.60;68.60
1526;DHT22;756;49.982;8.240;2022-08-01T05:17:40;22.60;68.50
1526;DHT22;756;49.982;8.240;2022-08-01T05:20:09;22.60;68.40
1526;DHT22;756;49.982;8.240;2022-08-01T05:22:36;22.70;68.10
1526;DHT22;756;49.982;8.240;2022-08-01T05:25:04;22.70;67.80
1526;DHT22;756;49.982;8.240;2022-08-01T05:27:32;22.70;67.80
1526;DHT22;756;49.982;8.240;2022-08-01T05:29:59;22.70;67.70
1526;DHT22;756;49.982;8.240;2022-08-01T05:32:26;22.80;67.60
1526;DHT22;756;49.982;8.240;2022-08-01T05:34:53;22.80;67.60
1526;DHT22;756;49.982;8.240;2022-08-01T05:37:20;22.90;67.50
1526;DHT22;756;49.982;8.240;2022-08-01T05:39:47;22.90;67.30
1526;DHT22;756;49.982;8.240;2022-08-01T05:42:13;23.00;67.30
1526;DHT22;756;49.982;8.240;2022-08-01T05:44:40;23.10;67.30
1526;DHT22;756;49.982;8.240;2022-08-01T05:47:07;23.10;67.30
1526;DHT22;756;49.982;8.240;2022-08-01T05:49:34;23.20;67.20
1526;DHT22;756;49.982;8.240;2022-08-01T05:52:01;23.30;66.70
1526;DHT22;756;49.982;8.240;2022-08-01T05:54:29;23.40;66.40
1526;DHT22;756;49.982;8.240;2022-08-01T05:56:56;23.40;66.40
1526;DHT22;756;49.982;8.240;2022-08-01T05:59:26;23.40;66.20
1526;DHT22;756;49.982;8.240;2022-08-01T06:01:53;23.50;66.10
1526;DHT22;756;49.982;8.240;2022-08-01T06:04:19;23.50;65.90
1526;DHT22;756;49.982;8.240;2022-08-01T06:06:47;23.60;65.90
1526;DHT22;756;49.982;8.240;2022-08-01T06:09:13;23.70;65.80
1526;DHT22;756;49.982;8.240;2022-08-01T06:11:40;23.70;65.70
1526;DHT22;756;49.982;8.240;2022-08-01T06:14:07;23.80;65.80
1526;DHT22;756;49.982;8.240;2022-08-01T06:16:34;23.80;65.50
1526;DHT22;756;49.982;8.240;2022-08-01T06:19:00;23.90;65.20
1526;DHT22;756;49.982;8.240;2022-08-01T06:21:27;23.90;65.00
1526;DHT22;756;49.982;8.240;2022-08-01T06:23:54;23.90;65.00
1526;DHT22;756;49.982;8.240;2022-08-01T06:26:21;24.00;64.80
1526;DHT22;756;49.982;8.240;2022-08-01T06:28:47;24.00;64.80
1526;DHT22;756;49.982;8.240;2022-08-01T06:31:14;24.10;64.50
1526;DHT22;756;49.982;8.240;2022-08-01T06:33:42;24.20;64.30
1526;DHT22;756;49.982;8.240;2022-08-01T06:36:08;24.20;64.30
1526;DHT22;756;49.982;8.240;2022-08-01T06:38:35;24.30;64.10
1526;DHT22;756;49.982;8.240;2022-08-01T06:41:02;24.30;64.00
1526;DHT22;756;49.982;8.240;2022-08-01T06:43:29;24.40;63.50
1526;DHT22;756;49.982;8.240;2022-08-01T06:45:57;24.50;63.40
1526;DHT22;756;49.982;8.240;2022-08-01T06:48:23;24.60;63.30
1526;DHT22;756;49.982;8.240;2022-08-01T06:50:50;24.70;63.00
1526;DHT22;756;49.982;8.240;2022-08-01T06:53:37;24.80;63.00
1526;DHT22;756;49.982;8.240;2022-08-01T06:56:05;24.90;62.80
1526;DHT22;756;49.982;8.240;2022-08-01T06:58:32;25.00;62.30
1526;DHT22;756;49.982;8.240;2022-08-01T07:01:04;25.10;61.90
1526;DHT22;756;49.982;8.240;2022-08-01T07:03:33;25.20;61.50
1526;DHT22;756;49.982;8.240;2022-08-01T07:06:20;25.30;61.50
1526;DHT22;756;49.982;8.240;2022-08-01T07:08:47;25.40;61.20
1526;DHT22;756;49.982;8.240;2022-08-01T07:11:13;25.40;61.00
1526;DHT22;756;49.982;8.240;2022-08-01T07:13:40;25.40;61.10
1526;DHT22;756;49.982;8.240;2022-08-01T07:16:12;25.40;61.20
1526;DHT22;756;49.982;8.240;2022-08-01T07:18:39;25.30;61.20
1526;DHT22;756;49.982;8.240;2022-08-01T07:21:05;25.30;61.20
1526;DHT22;756;49.982;8.240;2022-08-01T07:23:42;25.30;61.40
1526;DHT22;756;49.982;8.240;2022-08-01T07:26:11;25.30;61.70
1526;DHT22;756;49.982;8.240;2022-08-01T07:28:39;25.30;61.60
1526;DHT22;756;49.982;8.240;2022-08-01T07:31:09;25.30;61.70
1526;DHT22;756;49.982;8.240;2022-08-01T07:33:36;25.20;61.40
1526;DHT22;756;49.982;8.240;2022-08-01T07:36:15;25.20;61.60
1526;DHT22;756;49.982;8.240;2022-08-01T07:38:43;25.20;61.70
1526;DHT22;756;49.982;8.240;2022-08-01T07:41:09;25.20;62.10
1526;DHT22;756;49.982;8.240;2022-08-01T07:43:36;25.10;61.90
1526;DHT22;756;49.982;8.240;2022-08-01T07:46:03;25.10;62.00
1526;DHT22;756;49.982;8.240;2022-08-01T07:48:30;25.00;62.40
1526;DHT22;756;49.982;8.240;2022-08-01T07:50:57;25.00;62.70
1526;DHT22;756;49.982;8.240;2022-08-01T07:53:24;25.00;62.60
1526;DHT22;756;49.982;8.240;2022-08-01T07:55:51;25.00;62.60
1526;DHT22;756;49.982;8.240;2022-08-01T07:58:21;25.00;62.50
1526;DHT22;756;49.982;8.240;2022-08-01T08:00:48;25.00;62.70
1526;DHT22;756;49.982;8.240;2022-08-01T08:03:14;25.00;62.80
1526;DHT22;756;49.982;8.240;2022-08-01T08:05:41;25.00;62.80
1526;DHT22;756;49.982;8.240;2022-08-01T08:08:24;25.00;62.80
1526;DHT22;756;49.982;8.240;2022-08-01T08:10:51;25.00;62.80
1526;DHT22;756;49.982;8.240;2022-08-01T08:13:18;25.00;62.80
1526;DHT22;756;49.982;8.240;2022-08-01T08:15:46;25.00;62.70
1526;DHT22;756;49.982;8.240;2022-08-01T08:18:14;25.00;62.50
1526;DHT22;756;49.982;8.240;2022-08-01T08:20:41;25.10;62.50
1526;DHT22;756;49.982;8.240;2022-08-01T08:23:07;25.20;62.60
1526;DHT22;756;49.982;8.240;2022-08-01T08:26:10;25.30;62.60
1526;DHT22;756;49.982;8.240;2022-08-01T08:28:37;25.50;62.50
1526;DHT22;756;49.982;8.240;2022-08-01T08:31:07;25.70;61.80
1526;DHT22;756;49.982;8.240;2022-08-01T08:33:51;25.80;60.70
1526;DHT22;756;49.982;8.240;2022-08-01T08:36:18;26.00;60.30
1526;DHT22;756;49.982;8.240;2022-08-01T08:38:44;26.20;59.90
1526;DHT22;756;49.982;8.240;2022-08-01T08:41:12;26.30;59.50
1526;DHT22;756;49.982;8.240;2022-08-01T08:43:46;26.40;59.50
1526;DHT22;756;49.982;8.240;2022-08-01T08:46:14;26.50;59.20
1526;DHT22;756;49.982;8.240;2022-08-01T08:48:41;26.50;58.30
1526;DHT22;756;49.982;8.240;2022-08-01T08:51:10;26.50;58.70
1526;DHT22;756;49.982;8.240;2022-08-01T08:53:40;26.60;58.50
1526;DHT22;756;49.982;8.240;2022-08-01T08:56:14;26.60;58.30
1526;DHT22;756;49.982;8.240;2022-08-01T08:58:44;26.80;58.40
1526;DHT22;756;49.982;8.240;2022-08-01T09:01:11;26.90;58.10
1526;DHT22;756;49.982;8.240;2022-08-01T09:03:40;27.00;57.80
1526;DHT22;756;49.982;8.240;2022-08-01T09:06:07;27.00;57.90
1526;DHT22;756;49.982;8.240;2022-08-01T09:08:34;26.90;57.50
1526;DHT22;756;49.982;8.240;2022-08-01T09:11:02;26.90;57.50
1526;DHT22;756;49.982;8.240;2022-08-01T09:13:29;26.80;57.80
1526;DHT22;756;49.982;8.240;2022-08-01T09:15:56;26.70;58.10
1526;DHT22;756;49.982;8.240;2022-08-01T09:18:35;26.60;58.40
1526;DHT22;756;49.982;8.240;2022-08-01T09:21:19;26.60;58.50
1526;DHT22;756;49.982;8.240;2022-08-01T09:23:53;26.50;58.80
1526;DHT22;756;49.982;8.240;2022-08-01T09:26:32;26.50;59.20
1526;DHT22;756;49.982;8.240;2022-08-01T09:29:02;26.40;59.40
1526;DHT22;756;49.982;8.240;2022-08-01T09:31:41;26.40;59.60
1526;DHT22;756;49.982;8.240;2022-08-01T09:34:14;26.60;58.90
1526;DHT22;756;49.982;8.240;2022-08-01T09:39:25;26.90;57.70
1526;DHT22;756;49.982;8.240;2022-08-01T09:41:53;27.00;57.10
1526;DHT22;756;49.982;8.240;2022-08-01T09:44:39;27.00;57.10
1526;DHT22;756;49.982;8.240;2022-08-01T09:47:10;27.10;57.20
1526;DHT22;756;49.982;8.240;2022-08-01T09:49:41;27.10;56.90
1526;DHT22;756;49.982;8.240;2022-08-01T09:52:19;27.20;56.70
1526;DHT22;756;49.982;8.240;2022-08-01T09:55:00;27.20;56.90
1526;DHT22;756;49.982;8.240;2022-08-01T09:57:29;27.20;56.70
1526;DHT22;756;49.982;8.240;2022-08-01T10:00:00;27.20;56.90
1526;DHT22;756;49.982;8.240;2022-08-01T10:04:58;27.20;56.40
1526;DHT22;756;49.982;8.240;2022-08-01T10:07:35;27.10;56.40
1526;DHT22;756;49.982;8.240;2022-08-01T10:10:14;27.10;56.20
1526;DHT22;756;49.982;8.240;2022-08-01T10:12:42;27.20;56.50
1526;DHT22;756;49.982;8.240;2022-08-01T10:15:16;27.30;56.00
1526;DHT22;756;49.982;8.240;2022-08-01T10:20:22;27.30;55.40
1526;DHT22;756;49.982;8.240;2022-08-01T10:23:00;27.30;55.40
1526;DHT22;756;49.982;8.240;2022-08-01T10:25:37;27.40;54.80
1526;DHT22;756;49.982;8.240;2022-08-01T10:28:14;27.60;54.20
1526;DHT22;756;49.982;8.240;2022-08-01T10:30:47;27.90;53.70
1526;DHT22;756;49.982;8.240;2022-08-01T10:33:15;28.10;52.00
1526;DHT22;756;49.982;8.240;2022-08-01T10:36:02;28.20;51.50
1526;DHT22;756;49.982;8.240;2022-08-01T10:38:35;28.30;51.00
1526;DHT22;756;49.982;8.240;2022-08-01T10:41:04;28.30;51.00
1526;DHT22;756;49.982;8.240;2022-08-01T10:43:34;28.40;50.50
1526;DHT22;756;49.982;8.240;2022-08-01T10:46:03;28.40;50.50
1526;DHT22;756;49.982;8.240;2022-08-01T10:51:03;28.50;50.50
1526;DHT22;756;49.982;8.240;2022-08-01T10:53:51;28.50;50.60
1526;DHT22;756;49.982;8.240;2022-08-01T10:56:21;28.50;50.60
1526;DHT22;756;49.982;8.240;2022-08-01T10:59:02;28.50;50.70
1526;DHT22;756;49.982;8.240;2022-08-01T11:01:36;28.50;50.50
1526;DHT22;756;49.982;8.240;2022-08-01T11:04:09;28.50;50.20
1526;DHT22;756;49.982;8.240;2022-08-01T11:07:02;28.50;49.50
1526;DHT22;756;49.982;8.240;2022-08-01T11:12:11;28.50;50.30
1526;DHT22;756;49.982;8.240;2022-08-01T11:17:44;28.50;50.60
1526;DHT22;756;49.982;8.240;2022-08-01T11:20:20;28.50;50.70
1526;DHT22;756;49.982;8.240;2022-08-01T11:28:32;28.40;50.50
1526;DHT22;756;49.982;8.240;2022-08-01T11:41:11;28.30;50.80
1526;DHT22;756;49.982;8.240;2022-08-01T11:44:20;28.30;50.90
1526;DHT22;756;49.982;8.240;2022-08-01T11:52:24;28.40;50.10
1526;DHT22;756;49.982;8.240;2022-08-01T11:57:29;28.50;50.30
1526;DHT22;756;49.982;8.240;2022-08-01T12:00:17;28.50;50.20
1526;DHT22;756;49.982;8.240;2022-08-01T12:02:46;28.60;50.20
1526;DHT22;756;49.982;8.240;2022-08-01T12:05:15;28.60;50.00
1526;DHT22;756;49.982;8.240;2022-08-01T12:07:44;28.70;49.70
1526;DHT22;756;49.982;8.240;2022-08-01T12:10:14;28.70;49.70
1526;DHT22;756;49.982;8.240;2022-08-01T12:12:47;28.70;49.10
1526;DHT22;756;49.982;8.240;2022-08-01T12:15:19;28.80;48.80
1526;DHT22;756;49.982;8.240;2022-08-01T12:17:48;28.80;48.70
1526;DHT22;756;49.982;8.240;2022-08-01T12:20:30;28.90;48.60
1526;DHT22;756;49.982;8.240;2022-08-01T12:23:00;28.90;48.60
1526;DHT22;756;49.982;8.240;2022-08-01T12:25:27;29.00;48.50
1526;DHT22;756;49.982;8.240;2022-08-01T12:27:54;28.90;48.60
1526;DHT22;756;49.982;8.240;2022-08-01T12:30:23;28.90;48.30
1526;DHT22;756;49.982;8.240;2022-08-01T12:32:54;28.80;48.40
1526;DHT22;756;49.982;8.240;2022-08-01T12:35:24;28.80;48.20
1526;DHT22;756;49.982;8.240;2022-08-01T12:37:56;28.70;48.60
1526;DHT22;756;49.982;8.240;2022-08-01T12:40:28;28.60;48.60
1526;DHT22;756;49.982;8.240;2022-08-01T12:42:58;28.60;48.40
1526;DHT22;756;49.982;8.240;2022-08-01T12:45:30;28.50;48.70
1526;DHT22;756;49.982;8.240;2022-08-01T12:47:57;28.50;48.80
1526;DHT22;756;49.982;8.240;2022-08-01T12:50:30;28.40;48.90
1526;DHT22;756;49.982;8.240;2022-08-01T12:52:59;28.30;49.30
1526;DHT22;756;49.982;8.240;2022-08-01T12:55:27;28.30;49.50
1526;DHT22;756;49.982;8.240;2022-08-01T12:58:09;28.20;49.70
1526;DHT22;756;49.982;8.240;2022-08-01T13:00:43;28.20;49.90
1526;DHT22;756;49.982;8.240;2022-08-01T13:03:13;28.20;49.90
1526;DHT22;756;49.982;8.240;2022-08-01T13:05:49;28.20;49.90
1526;DHT22;756;49.982;8.240;2022-08-01T13:13:45;28.40;49.50
1526;DHT22;756;49.982;8.240;2022-08-01T13:16:17;28.30;49.50
1526;DHT22;756;49.982;8.240;2022-08-01T13:19:04;28.30;49.60
1526;DHT22;756;49.982;8.240;2022-08-01T13:21:32;28.30;49.30
1526;DHT22;756;49.982;8.240;2022-08-01T13:24:24;28.30;49.40
1526;DHT22;756;49.982;8.240;2022-08-01T13:26:54;28.30;49.60
1526;DHT22;756;49.982;8.240;2022-08-01T13:29:33;28.30;49.50
1526;DHT22;756;49.982;8.240;2022-08-01T13:32:15;28.30;49.60
1526;DHT22;756;49.982;8.240;2022-08-01T13:35:06;28.30;49.70
1526;DHT22;756;49.982;8.240;2022-08-01T13:37:35;28.30;49.70
1526;DHT22;756;49.982;8.240;2022-08-01T13:40:05;28.30;49.80
1526;DHT22;756;49.982;8.240;2022-08-01T13:42:32;28.30;49.70
1526;DHT22;756;49.982;8.240;2022-08-01T13:44:59;28.20;49.30
1526;DHT22;756;49.982;8.240;2022-08-01T13:47:39;28.20;49.40
1526;DHT22;756;49.982;8.240;2022-08-01T13:50:26;28.20;49.70
1526;DHT22;756;49.982;8.240;2022-08-01T13:52:53;28.20;50.00
1526;DHT22;756;49.982;8.240;2022-08-01T13:55:19;28.20;50.00
1526;DHT22;756;49.982;8.240;2022-08-01T13:57:46;28.30;49.70
1526;DHT22;756;49.982;8.240;2022-08-01T14:00:13;28.30;49.50
1526;DHT22;756;49.982;8.240;2022-08-01T14:02:40;28.30;49.30
1526;DHT22;756;49.982;8.240;2022-08-01T14:05:07;28.40;49.30
1526;DHT22;756;49.982;8.240;2022-08-01T14:07:34;28.40;49.30
1526;DHT22;756;49.982;8.240;2022-08-01T14:10:04;28.40;49.10
1526;DHT22;756;49.982;8.240;2022-08-01T14:12:46;28.50;48.80
1526;DHT22;756;49.982;8.240;2022-08-01T14:15:13;28.50;49.00
1526;DHT22;756;49.982;8.240;2022-08-01T14:17:52;28.50;49.20
1526;DHT22;756;49.982;8.240;2022-08-01T14:20:18;28.50;48.50
1526;DHT22;756;49.982;8.240;2022-08-01T14:22:46;28.50;48.40
1526;DHT22;756;49.982;8.240;2022-08-01T14:25:13;28.50;48.60
1526;DHT22;756;49.982;8.240;2022-08-01T14:28:00;28.50;48.90
1526;DHT22;756;49.982;8.240;2022-08-01T14:30:31;28.50;48.70
1526;DHT22;756;49.982;8.240;2022-08-01T14:32:58;28.50;48.90
1526;DHT22;756;49.982;8.240;2022-08-01T14:35:25;28.50;49.40
1526;DHT22;756;49.982;8.240;2022-08-01T14:37:52;28.50;49.90
1526;DHT22;756;49.982;8.240;2022-08-01T14:40:23;28.40;49.90
1526;DHT22;756;49.982;8.240;2022-08-01T14:42:50;28.40;50.20
1526;DHT22;756;49.982;8.240;2022-08-01T14:45:16;28.40;50.20
1526;DHT22;756;49.982;8.240;2022-08-01T14:47:43;28.40;50.30
1526;DHT22;756;49.982;8.240;2022-08-01T14:50:12;28.40;50.60
1526;DHT22;756;49.982;8.240;2022-08-01T14:52:40;28.40;50.50
1526;DHT22;756;49.982;8.240;2022-08-01T14:55:09;28.30;50.10
1526;DHT22;756;49.982;8.240;2022-08-01T14:57:37;28.30;50.60
1526;DHT22;756;49.982;8.240;2022-08-01T15:00:07;28.20;50.80
1526;DHT22;756;49.982;8.240;2022-08-01T15:02:34;28.20;51.20
1526;DHT22;756;49.982;8.240;2022-08-01T15:05:01;28.10;51.70
1526;DHT22;756;49.982;8.240;2022-08-01T15:07:28;28.10;52.10
1526;DHT22;756;49.982;8.240;2022-08-01T15:09:55;28.00;51.90
1526;DHT22;756;49.982;8.240;2022-08-01T15:12:22;28.00;51.70
1526;DHT22;756;49.982;8.240;2022-08-01T15:14:49;28.00;51.70
1526;DHT22;756;49.982;8.240;2022-08-01T15:17:22;27.90;51.40
1526;DHT22;756;49.982;8.240;2022-08-01T15:19:53;28.00;51.60
1526;DHT22;756;49.982;8.240;2022-08-01T15:22:21;28.00;51.30
1526;DHT22;756;49.982;8.240;2022-08-01T15:24:48;28.00;51.50
1526;DHT22;756;49.982;8.240;2022-08-01T15:27:22;27.90;51.20
1526;DHT22;756;49.982;8.240;2022-08-01T15:29:50;27.90;51.30
1526;DHT22;756;49.982;8.240;2022-08-01T15:32:16;27.90;51.60
1526;DHT22;756;49.982;8.240;2022-08-01T15:34:43;27.90;51.80
1526;DHT22;756;49.982;8.240;2022-08-01T15:37:11;27.90;52.00
1526;DHT22;756;49.982;8.240;2022-08-01T15:39:38;27.90;52.00
1526;DHT22;756;49.982;8.240;2022-08-01T15:42:11;27.90;51.60
1526;DHT22;756;49.982;8.240;2022-08-01T15:44:44;28.00;51.70
1526;DHT22;756;49.982;8.240;2022-08-01T15:47:12;28.00;52.10
1526;DHT22;756;49.982;8.240;2022-08-01T15:49:39;28.00;51.80
1526;DHT22;756;49.982;8.240;2022-08-01T15:52:07;28.00;51.50
1526;DHT22;756;49.982;8.240;2022-08-01T15:54:48;28.00;51.60
1526;DHT22;756;49.982;8.240;2022-08-01T15:57:15;28.00;51.70
1526;DHT22;756;49.982;8.240;2022-08-01T15:59:41;28.00;51.80
1526;DHT22;756;49.982;8.240;2022-08-01T16:02:08;28.00;51.90
1526;DHT22;756;49.982;8.240;2022-08-01T16:04:36;27.90;51.90
1526;DHT22;756;49.982;8.240;2022-08-01T16:07:04;27.90;51.50
1526;DHT22;756;49.982;8.240;2022-08-01T16:09:31;27.90;51.30
1526;DHT22;756;49.982;8.240;2022-08-01T16:11:58;27.90;51.00
1526;DHT22;756;49.982;8.240;2022-08-01T16:14:25;27.90;51.10
1526;DHT22;756;49.982;8.240;2022-08-01T16:16:52;27.80;51.00
1526;DHT22;756;49.982;8.240;2022-08-01T16:19:21;27.80;51.00
1526;DHT22;756;49.982;8.240;2022-08-01T16:21:49;27.80;51.10
1526;DHT22;756;49.982;8.240;2022-08-01T16:24:17;27.70;51.20
1526;DHT22;756;49.982;8.240;2022-08-01T16:26:44;27.70;51.20
1526;DHT22;756;49.982;8.240;2022-08-01T16:29:10;27.70;51.40
1526;DHT22;756;49.982;8.240;2022-08-01T16:31:37;27.70;51.60
1526;DHT22;756;49.982;8.240;2022-08-01T16:34:24;27.60;51.50
1526;DHT22;756;49.982;8.240;2022-08-01T16:36:50;27.60;51.30
1526;DHT22;756;49.982;8.240;2022-08-01T16:39:18;27.50;51.50
1526;DHT22;756;49.982;8.240;2022-08-01T16:41:49;27.50;51.50
1526;DHT22;756;49.982;8.240;2022-08-01T16:44:24;27.50;51.90
1526;DHT22;756;49.982;8.240;2022-08-01T16:46:59;27.40;52.10
1526;DHT22;756;49.982;8.240;2022-08-01T16:49:26;27.40;52.00
1526;DHT22;756;49.982;8.240;2022-08-01T16:51:53;27.40;52.10
1526;DHT22;756;49.982;8.240;2022-08-01T16:54:20;27.30;52.00
1526;DHT22;756;49.982;8.240;2022-08-01T16:56:51;27.30;52.00
1526;DHT22;756;49.982;8.240;2022-08-01T16:59:18;27.30;52.40
1526;DHT22;756;49.982;8.240;2022-08-01T17:01:44;27.30;52.60
1526;DHT22;756;49.982;8.240;2022-08-01T17:04:27;27.30;52.60
1526;DHT22;756;49.982;8.240;2022-08-01T17:06:54;27.30;52.40
1526;DHT22;756;49.982;8.240;2022-08-01T17:09:21;27.40;52.00
1526;DHT22;756;49.982;8.240;2022-08-01T17:11:48;27.40;52.10
1526;DHT22;756;49.982;8.240;2022-08-01T17:14:14;27.40;52.20
1526;DHT22;756;49.982;8.240;2022-08-01T17:16:41;27.50;51.60
1526;DHT22;756;49.982;8.240;2022-08-01T17:19:08;27.40;51.40
1526;DHT22;756;49.982;8.240;2022-08-01T17:21:45;27.40;51.40
1526;DHT22;756;49.982;8.240;2022-08-01T17:24:12;27.40;51.90
1526;DHT22;756;49.982;8.240;2022-08-01T17:26:42;27.50;52.40
1526;DHT22;756;49.982;8.240;2022-08-01T17:29:09;27.50;53.00
1526;DHT22;756;49.982;8.240;2022-08-01T17:31:35;27.40;52.90
1526;DHT22;756;49.982;8.240;2022-08-01T17:34:02;27.50;52.70
1526;DHT22;756;49.982;8.240;2022-08-01T17:36:29;27.50;53.00
1526;DHT22;756;49.982;8.240;2022-08-01T17:38:56;27.50;53.10